Time;durP1;ratioP1;P1;durP2;ratioP2;P2;SDS_P1;SDS_P2;PMS_P1;PMS_P2;Temp;Humidity;BMP_temperature;BMP_pressure;BME280_temperature;BME280_humidity;BME280_pressure;Samples;Min_cycle;Max_cycle;Signal;HPM_P1;HPM_P2
2021/03/10 00:00:22;;;;;;;18.90;13.43;;;;;;;4.60;33.73;101384.31;4915365;28;101400;-76
2021/03/10 00:02:49;;;;;;;24.30;14.75;;;;;;;4.62;33.50;101382.69;4918382;28;96934;-77
2021/03/10 00:05:16;;;;;;;27.42;15.20;;;;;;;4.60;33.81;101392.22;4929402;28;97725;-75
2021/03/10 00:07:44;;;;;;;21.90;13.60;;;;;;;4.59;33.98;101386.03;4930040;28;97044;-77
2021/03/10 00:10:13;;;;;;;23.88;13.63;;;;;;;4.57;33.94;101387.69;4915004;28;100806;-76
2021/03/10 00:12:40;;;;;;;20.05;13.57;;;;;;;4.60;33.84;101386.97;4915264;28;96961;-77
2021/03/10 00:15:09;;;;;;;21.60;13.77;;;;;;;4.58;33.92;101385.97;4931571;28;97349;-75
2021/03/10 00:17:37;;;;;;;22.10;13.82;;;;;;;4.59;33.84;101383.41;4918260;28;96983;-76
2021/03/10 00:20:05;;;;;;;21.60;14.05;;;;;;;4.59;33.93;101385.16;4921532;28;98248;-75
2021/03/10 00:22:32;;;;;;;20.70;13.95;;;;;;;4.58;33.88;101384.25;4933589;28;96995;-73
2021/03/10 00:25:01;;;;;;;24.63;14.15;;;;;;;4.59;34.15;101385.16;4929427;28;98434;-76
2021/03/10 00:27:29;;;;;;;21.63;13.57;;;;;;;4.57;33.92;101390.31;4917184;28;100451;-76
2021/03/10 00:29:57;;;;;;;23.08;13.27;;;;;;;4.57;34.13;101381.53;4915923;28;99193;-74
2021/03/10 00:32:26;;;;;;;21.10;13.77;;;;;;;4.56;33.86;101387.59;4931517;28;96988;-76
2021/03/10 00:34:53;;;;;;;21.08;13.50;;;;;;;4.54;33.95;101391.88;4930839;28;97273;-75
2021/03/10 00:37:20;;;;;;;22.25;14.15;;;;;;;4.50;33.90;101379.38;4930640;28;98822;-75
2021/03/10 00:39:48;;;;;;;20.42;12.40;;;;;;;4.50;34.23;101384.66;4935212;28;98803;-76
2021/03/10 00:42:16;;;;;;;18.77;12.70;;;;;;;4.50;34.11;101380.28;4923106;28;96902;-76
2021/03/10 00:44:44;;;;;;;21.83;13.15;;;;;;;4.50;33.91;101379.38;4909726;28;96762;-75
2021/03/10 00:47:11;;;;;;;19.67;13.05;;;;;;;4.48;33.93;101381.91;4933899;28;99002;-75
2021/03/10 00:49:39;;;;;;;19.48;12.50;;;;;;;4.47;33.81;101388.03;4916076;28;99360;-76
2021/03/10 00:52:06;;;;;;;21.92;13.40;;;;;;;4.45;33.91;101386.09;4934400;28;96847;-76
2021/03/10 00:54:33;;;;;;;19.27;13.13;;;;;;;4.44;34.15;101381.66;4930471;28;97395;-76
2021/03/10 00:57:00;;;;;;;21.42;12.70;;;;;;;4.41;33.86;101387.66;4907052;28;99261;-74
2021/03/10 00:59:27;;;;;;;20.48;13.20;;;;;;;4.41;33.79;101382.41;4932345;28;99582;-75
2021/03/10 01:01:55;;;;;;;21.55;13.48;;;;;;;4.41;33.74;101386.78;4939005;28;96801;-75
2021/03/10 01:04:22;;;;;;;20.73;13.52;;;;;;;4.40;33.87;101384.94;4935522;28;96712;-75
2021/03/10 01:06:49;;;;;;;18.63;12.45;;;;;;;4.40;34.07;101380.59;4934880;28;97686;-75
2021/03/10 01:09:17;;;;;;;21.38;14.40;;;;;;;4.39;33.97;101380.53;4933101;28;98856;-75
2021/03/10 01:11:45;;;;;;;23.23;12.85;;;;;;;4.38;34.04;101378.69;4927826;28;96630;-75
2021/03/10 01:14:12;;;;;;;18.83;13.20;;;;;;;4.36;33.70;101378.63;4931502;28;97254;-76
2021/03/10 01:16:39;;;;;;;20.17;13.05;;;;;;;4.36;33.74;101381.25;4932432;28;99225;-76
2021/03/10 01:19:07;;;;;;;19.27;12.38;;;;;;;4.36;34.07;101377.69;4915156;28;99206;-75
2021/03/10 01:21:34;;;;;;;19.70;12.38;;;;;;;4.33;33.82;101381.09;4913860;28;97018;-74
2021/03/10 01:24:02;;;;;;;16.45;12.15;;;;;;;4.32;34.29;101381.88;4933885;28;97167;-76
2021/03/10 01:26:28;;;;;;;18.42;12.02;;;;;;;4.33;33.57;101385.44;4917447;28;99485;-76
2021/03/10 01:28:55;;;;;;;17.60;11.80;;;;;;;4.32;33.76;101378.38;4922692;28;100571;-76
2021/03/10 01:31:22;;;;;;;19.48;13.05;;;;;;;4.29;33.57;101383.44;4915894;28;97047;-76
2021/03/10 01:33:49;;;;;;;21.20;12.35;;;;;;;4.23;33.89;101379.66;4916501;28;97100;-75
2021/03/10 01:36:17;;;;;;;18.42;12.05;;;;;;;4.22;33.87;101388.38;4931221;28;98018;-76
2021/03/10 01:38:43;;;;;;;16.58;11.98;;;;;;;4.15;33.97;101386.22;4930723;28;98443;-75
2021/03/10 01:41:12;;;;;;;19.05;13.23;;;;;;;4.13;33.81;101379.94;4933396;28;98010;-75
2021/03/10 01:43:39;;;;;;;17.10;12.10;;;;;;;4.09;33.64;101375.34;4901776;28;97628;-76
2021/03/10 01:46:06;;;;;;;17.13;11.55;;;;;;;4.06;33.99;101385.69;4932724;28;100314;-75
2021/03/10 01:48:34;;;;;;;20.95;12.45;;;;;;;4.05;33.95;101378.63;4933625;28;98688;-75
2021/03/10 01:51:03;;;;;;;15.95;11.35;;;;;;;4.01;33.93;101379.28;4932566;28;98697;-75
2021/03/10 01:53:31;;;;;;;15.15;11.05;;;;;;;4.00;33.55;101376.56;4922290;28;97577;-75
2021/03/10 01:55:59;;;;;;;14.88;11.77;;;;;;;3.99;34.15;101378.28;4934499;28;100543;-76
2021/03/10 01:58:26;;;;;;;16.92;11.20;;;;;;;3.97;33.61;101379.03;4930271;28;99649;-75
2021/03/10 02:00:53;;;;;;;16.40;12.00;;;;;;;3.94;33.65;101379.75;4938914;28;97167;-75
2021/03/10 02:03:20;;;;;;;17.75;11.35;;;;;;;3.90;33.90;101374.19;4937320;28;96809;-75
2021/03/10 02:06:06;;;;;;;17.75;11.32;;;;;;;3.88;33.67;101376.75;4933158;28;98853;-75
2021/03/10 02:08:41;;;;;;;16.27;11.68;;;;;;;3.85;33.66;101379.22;4914264;28;98639;-75
2021/03/10 02:11:12;;;;;;;17.20;11.40;;;;;;;3.85;33.81;101379.22;4928975;28;96949;-75
2021/03/10 02:13:45;;;;;;;17.35;10.98;;;;;;;3.84;34.11;101372.13;4941061;28;97156;-75
2021/03/10 02:16:15;;;;;;;15.55;10.50;;;;;;;3.84;33.92;101372.13;4920912;28;100078;-75
2021/03/10 02:18:44;;;;;;;19.50;11.98;;;;;;;3.81;33.57;101374.59;4937705;28;100168;-75
2021/03/10 02:21:20;;;;;;;17.27;11.38;;;;;;;3.81;33.79;101376.31;4937855;28;96874;-74
2021/03/10 02:24:04;;;;;;;16.10;11.38;;;;;;;3.79;33.93;101372.69;4921515;28;97279;-75
2021/03/10 02:26:33;;;;;;;16.58;11.90;;;;;;;3.79;33.70;101380.56;4914954;28;97305;-75
2021/03/10 02:29:04;;;;;;;14.95;10.98;;;;;;;3.75;33.86;101374.22;4922293;28;98570;-75
2021/03/10 02:31:34;;;;;;;16.17;11.40;;;;;;;3.75;33.68;101370.72;4908833;28;97462;-75
2021/03/10 02:34:02;;;;;;;17.25;11.93;;;;;;;3.76;33.84;101370.78;4934140;28;96811;-75
2021/03/10 02:36:30;;;;;;;18.38;11.50;;;;;;;3.75;33.99;101376.84;4933199;28;98060;-75
2021/03/10 02:39:00;;;;;;;22.35;12.35;;;;;;;3.74;33.50;101380.31;4938354;28;99474;-75
2021/03/10 02:41:28;;;;;;;17.80;11.38;;;;;;;3.75;33.44;101378.63;4932562;28;97490;-75
2021/03/10 02:43:55;;;;;;;15.65;10.82;;;;;;;3.72;33.88;101376.69;4913729;28;97459;-76
2021/03/10 02:46:23;;;;;;;17.55;10.73;;;;;;;3.73;33.86;101367.97;4920890;28;98694;-75
2021/03/10 02:48:51;;;;;;;14.93;10.50;;;;;;;3.73;33.48;101378.50;4931303;28;98899;-75
2021/03/10 02:51:37;;;;;;;16.75;11.25;;;;;;;3.73;33.29;101372.34;4916843;28;97384;-75
2021/03/10 02:54:04;;;;;;;18.98;11.55;;;;;;;3.72;33.78;101379.31;4936314;28;96942;-76
2021/03/10 02:56:31;;;;;;;17.42;11.27;;;;;;;3.71;33.43;101369.63;4914502;28;97814;-76
2021/03/10 02:58:58;;;;;;;14.63;10.93;;;;;;;3.72;33.79;101379.31;4916852;28;99962;-76
2021/03/10 03:01:26;;;;;;;14.95;10.88;;;;;;;3.73;33.53;101372.34;4895039;28;97568;-75
2021/03/10 03:03:53;;;;;;;15.15;10.57;;;;;;;3.70;33.55;101380.97;4928633;28;96721;-75
2021/03/10 03:06:19;;;;;;;14.43;11.45;;;;;;;3.70;33.59;101387.94;4927954;28;98862;-75
2021/03/10 03:08:48;;;;;;;14.18;11.57;;;;;;;3.69;33.49;101392.31;4926043;28;100571;-75
2021/03/10 03:11:16;;;;;;;15.98;10.90;;;;;;;3.68;33.60;101395.75;4927835;28;96997;-75
2021/03/10 03:13:42;;;;;;;14.73;11.02;;;;;;;3.67;33.49;101393.94;4910417;28;98843;-75
2021/03/10 03:16:09;;;;;;;16.05;10.88;;;;;;;3.67;33.48;101393.03;4927790;28;98378;-75
2021/03/10 03:18:37;;;;;;;14.57;10.93;;;;;;;3.67;33.65;101388.69;4909397;28;100344;-75
2021/03/10 03:21:05;;;;;;;15.98;10.88;;;;;;;3.68;33.12;101395.75;4926161;28;97113;-76
2021/03/10 03:23:32;;;;;;;17.52;10.80;;;;;;;3.67;33.75;101391.31;4925835;28;96939;-75
2021/03/10 03:26:01;;;;;;;11.98;9.93;;;;;;;3.66;33.24;101391.25;4911135;28;99444;-75
2021/03/10 03:28:28;;;;;;;16.00;11.27;;;;;;;3.66;33.44;101388.59;4928829;28;98119;-75
2021/03/10 03:30:56;;;;;;;15.93;10.52;;;;;;;3.64;33.83;101388.44;4911522;28;97622;-74
2021/03/10 03:33:26;;;;;;;14.23;10.60;;;;;;;3.63;33.53;101391.00;4915606;28;96811;-74
2021/03/10 03:35:56;;;;;;;16.25;10.98;;;;;;;3.64;33.24;101396.34;4936145;28;97208;-75
2021/03/10 03:38:24;;;;;;;14.45;11.10;;;;;;;3.66;33.20;101391.25;4920454;28;99159;-75
2021/03/10 03:40:51;;;;;;;14.90;10.93;;;;;;;3.66;33.34;101393.88;4935435;28;97240;-75
2021/03/10 03:43:19;;;;;;;15.98;10.52;;;;;;;3.67;33.37;101391.31;4916677;28;98808;-75
2021/03/10 03:45:46;;;;;;;13.50;10.52;;;;;;;3.63;33.46;101401.53;4933956;28;99118;-75
2021/03/10 03:48:13;;;;;;;16.13;9.82;;;;;;;3.61;33.27;101406.69;4917057;28;100607;-75
2021/03/10 03:50:41;;;;;;;16.55;10.65;;;;;;;3.62;33.46;101413.81;4935907;28;97401;-75
2021/03/10 03:53:09;;;;;;;12.98;9.98;;;;;;;3.63;33.11;101410.34;4929187;28;97589;-75
2021/03/10 03:55:36;;;;;;;12.23;10.02;;;;;;;3.61;33.33;101401.44;4932406;28;97879;-75
2021/03/10 03:58:03;;;;;;;14.73;10.27;;;;;;;3.62;33.11;101403.28;4915325;28;96854;-75
2021/03/10 04:00:30;;;;;;;12.88;9.50;;;;;;;3.64;33.26;101419.16;4915439;28;97187;-75
2021/03/10 04:02:57;;;;;;;17.77;10.43;;;;;;;3.62;33.22;101416.44;4919083;28;97275;-75
2021/03/10 04:05:24;;;;;;;13.45;9.88;;;;;;;3.63;33.27;101422.56;4920895;28;97274;-75
2021/03/10 04:08:07;;;;;;;11.50;9.18;;;;;;;3.58;33.16;101427.59;4929468;28;97345;-75
2021/03/10 04:10:37;;;;;;;13.57;8.93;;;;;;;3.58;33.53;101430.22;4929861;28;97681;-75
2021/03/10 04:13:04;;;;;;;13.30;8.45;;;;;;;3.60;33.57;101428.59;4922139;28;97120;-75
2021/03/10 04:15:32;;;;;;;11.77;9.27;;;;;;;3.57;32.96;101433.66;4898521;28;99838;-76
2021/03/10 04:18:01;;;;;;;13.75;9.38;;;;;;;3.56;32.82;101437.13;4934951;28;97935;-75
2021/03/10 04:20:28;;;;;;;13.00;8.95;;;;;;;3.57;33.13;101438.91;4931158;28;97263;-76
2021/03/10 04:22:55;;;;;;;13.00;9.40;;;;;;;3.57;33.08;101425.75;4917098;28;98185;-75
2021/03/10 04:25:41;;;;;;;13.05;8.75;;;;;;;3.54;33.15;101422.94;4930673;28;97406;-76
2021/03/10 04:28:07;;;;;;;11.93;8.85;;;;;;;3.55;33.23;101423.88;4905281;28;101207;-76
2021/03/10 04:30:35;;;;;;;10.82;9.00;;;;;;;3.53;32.83;101423.75;4913907;28;98845;-75
2021/03/10 04:33:03;;;;;;;10.07;8.75;;;;;;;3.52;33.34;101421.94;4919615;28;97257;-75
2021/03/10 04:35:30;;;;;;;12.55;8.13;;;;;;;3.49;33.22;101423.50;4899572;28;98974;-75
2021/03/10 04:37:57;;;;;;;10.65;8.80;;;;;;;3.48;33.36;101416.44;4934528;28;97618;-75
2021/03/10 04:40:24;;;;;;;10.27;8.77;;;;;;;3.47;33.45;101422.50;4916871;28;96886;-74
2021/03/10 04:42:52;;;;;;;10.82;8.63;;;;;;;3.47;33.22;101423.41;4929787;28;96928;-74
2021/03/10 04:45:19;;;;;;;9.93;8.38;;;;;;;3.47;32.65;101426.03;4911432;28;97950;-73
2021/03/10 04:47:46;;;;;;;11.20;7.88;;;;;;;3.47;32.55;101426.03;4933060;28;97965;-74
2021/03/10 04:50:14;;;;;;;12.35;8.82;;;;;;;3.45;33.14;101422.41;4918605;28;96843;-74
2021/03/10 04:52:41;;;;;;;11.10;8.43;;;;;;;3.44;33.07;101420.56;4910321;28;97663;-76
2021/03/10 04:55:09;;;;;;;10.25;8.50;;;;;;;3.45;32.67;101414.50;4933861;28;99151;-75
2021/03/10 04:57:37;;;;;;;9.95;8.20;;;;;;;3.44;32.52;101425.84;4921745;28;99770;-75
2021/03/10 05:00:07;;;;;;;9.38;8.18;;;;;;;3.44;32.57;101435.47;4910766;28;97053;-75
2021/03/10 05:02:34;;;;;;;9.45;8.20;;;;;;;3.42;32.63;101438.03;4906521;28;97193;-75
2021/03/10 05:05:02;;;;;;;9.70;8.70;;;;;;;3.42;33.10;101437.09;4926337;28;97798;-75
2021/03/10 05:07:48;;;;;;;12.40;8.85;;;;;;;3.40;32.62;101429.13;4909455;28;100898;-75
2021/03/10 05:10:15;;;;;;;15.70;12.20;;;;;;;3.41;32.82;101428.28;4899995;28;97417;-75
2021/03/10 05:12:42;;;;;;;16.20;10.25;;;;;;;3.39;32.70;101435.19;4912256;28;98154;-75
2021/03/10 05:15:10;;;;;;;10.55;8.48;;;;;;;3.37;32.80;101436.81;4917582;28;100863;-76
2021/03/10 05:17:37;;;;;;;12.32;8.40;;;;;;;3.37;32.97;101441.19;4920371;28;99260;-76
2021/03/10 05:20:06;;;;;;;10.45;7.90;;;;;;;3.34;32.63;101436.63;4928208;28;98037;-76
2021/03/10 05:22:33;;;;;;;11.75;9.07;;;;;;;3.33;32.55;101432.16;4939772;28;97033;-76
2021/03/10 05:25:00;;;;;;;12.00;8.40;;;;;;;3.32;32.32;101433.00;4912556;28;99319;-77
2021/03/10 05:27:30;;;;;;;10.65;8.38;;;;;;;3.28;32.52;101438.88;4912795;28;101847;-77
2021/03/10 05:29:58;;;;;;;11.57;8.23;;;;;;;3.27;32.34;101442.34;4919992;28;96837;-77
2021/03/10 05:32:26;;;;;;;13.43;8.70;;;;;;;3.27;32.75;101436.16;4927511;28;96993;-77
2021/03/10 05:34:53;;;;;;;15.48;10.50;;;;;;;3.23;32.39;101435.09;4932974;28;97096;-77
2021/03/10 05:37:20;;;;;;;14.98;10.02;;;;;;;3.22;32.63;101433.28;4914538;28;100442;-77
2021/03/10 05:39:47;;;;;;;10.63;8.07;;;;;;;3.20;32.66;101433.16;4925602;28;97656;-76
2021/03/10 05:42:15;;;;;;;10.85;8.40;;;;;;;3.19;32.57;101433.06;4910349;28;97243;-76
2021/03/10 05:45:00;;;;;;;10.63;8.27;;;;;;;3.18;32.75;101442.66;4898683;28;98033;-76
2021/03/10 05:47:28;;;;;;;11.82;8.93;;;;;;;3.18;32.71;101453.19;4903179;28;97749;-76
2021/03/10 05:49:55;;;;;;;10.68;7.72;;;;;;;3.16;32.29;101451.31;4921472;28;100019;-76
2021/03/10 05:52:23;;;;;;;11.73;8.02;;;;;;;3.17;32.79;101440.88;4903671;28;98883;-76
2021/03/10 05:54:51;;;;;;;8.77;7.88;;;;;;;3.15;32.08;101438.94;4933445;28;97569;-76
2021/03/10 05:57:18;;;;;;;9.48;7.75;;;;;;;3.14;32.52;101450.31;4931803;28;97684;-76
2021/03/10 05:59:44;;;;;;;8.98;8.05;;;;;;;3.11;32.29;101451.00;4917770;28;96894;-76
2021/03/10 06:02:12;;;;;;;10.63;8.50;;;;;;;3.11;32.96;101461.53;4932803;28;97052;-76
2021/03/10 06:04:41;;;;;;;10.43;8.18;;;;;;;3.06;32.40;101462.97;4934685;28;98723;-76
2021/03/10 06:07:19;;;;;;;12.32;8.82;;;;;;;3.05;32.25;101462.88;4914577;28;99495;-75
2021/03/10 06:09:56;;;;;;;9.80;8.13;;;;;;;3.04;32.24;101463.66;4929415;28;96678;-75
2021/03/10 06:12:23;;;;;;;11.23;8.85;;;;;;;3.03;32.74;101461.88;4910180;28;98984;-75
2021/03/10 06:14:59;;;;;;;10.07;8.70;;;;;;;3.04;32.31;101458.41;4922428;28;98492;-75
2021/03/10 06:17:25;;;;;;;11.85;9.35;;;;;;;3.06;32.38;101470.84;4920232;28;99243;-75
2021/03/10 06:19:53;;;;;;;10.60;8.68;;;;;;;3.00;32.41;101480.09;4914900;28;97249;-75
2021/03/10 06:22:20;;;;;;;11.07;8.88;;;;;;;2.94;32.31;101467.47;4912541;28;97589;-75
2021/03/10 06:25:00;;;;;;;12.18;8.80;;;;;;;2.93;32.42;101470.00;4920446;28;97597;-75
2021/03/10 06:27:28;;;;;;;14.15;9.40;;;;;;;2.94;32.75;101479.69;4890086;28;97974;-75
2021/03/10 06:29:56;;;;;;;11.38;9.05;;;;;;;2.94;32.57;101477.06;4930322;28;98154;-75
2021/03/10 06:32:23;;;;;;;15.30;9.43;;;;;;;2.94;32.89;101467.47;4927937;28;97513;-76
2021/03/10 06:34:52;;;;;;;14.00;9.35;;;;;;;2.94;32.53;101467.47;4930220;28;96868;-76
2021/03/10 06:37:27;;;;;;;14.73;9.25;;;;;;;2.93;32.10;101470.00;4905819;28;99275;-74
2021/03/10 06:40:06;;;;;;;13.63;8.68;;;;;;;2.95;32.49;101468.34;4932481;28;96956;-75
2021/03/10 06:42:34;;;;;;;11.38;8.20;;;;;;;2.96;32.60;101468.47;4936655;28;99366;-75
2021/03/10 06:45:09;;;;;;;10.75;8.73;;;;;;;2.98;32.37;101473.84;4922118;28;98905;-76
2021/03/10 06:47:38;;;;;;;11.15;8.25;;;;;;;2.97;32.75;101472.91;4932840;28;97647;-76
2021/03/10 06:50:07;;;;;;;12.60;9.25;;;;;;;2.98;32.05;101473.84;4921061;28;96816;-74
2021/03/10 06:52:34;;;;;;;17.40;10.20;;;;;;;3.03;32.51;101461.88;4917586;28;97512;-75
2021/03/10 06:55:03;;;;;;;12.07;9.52;;;;;;;3.04;32.50;101475.09;4910480;28;99647;-75
2021/03/10 06:57:30;;;;;;;12.32;10.20;;;;;;;3.05;32.30;101478.66;4932010;28;97643;-75
2021/03/10 06:59:57;;;;;;;14.18;9.50;;;;;;;3.07;32.37;101484.91;4937922;28;96953;-76
2021/03/10 07:02:25;;;;;;;15.40;10.15;;;;;;;3.11;32.62;101485.19;4900763;28;97430;-75
2021/03/10 07:04:55;;;;;;;12.25;10.02;;;;;;;3.15;31.92;101486.28;4925343;28;100786;-76
2021/03/10 07:07:22;;;;;;;15.02;10.07;;;;;;;3.15;32.49;101488.91;4935231;28;98349;-74
2021/03/10 07:09:50;;;;;;;15.30;9.32;;;;;;;3.18;32.29;101489.13;4936046;28;97021;-76
2021/03/10 07:12:18;;;;;;;13.30;9.85;;;;;;;3.20;31.88;101485.75;4916136;28;97429;-78
2021/03/10 07:14:46;;;;;;;15.30;9.85;;;;;;;3.20;32.26;101495.38;4909931;28;99369;-77
2021/03/10 07:17:17;;;;;;;15.30;10.40;;;;;;;3.22;32.09;101496.41;4891089;28;98286;-73
2021/03/10 07:19:44;;;;;;;11.95;9.40;;;;;;;3.21;32.45;101495.47;4922711;28;98161;-74
2021/03/10 07:22:15;;;;;;;16.15;9.68;;;;;;;3.22;32.12;101502.53;4918426;28;97197;-75
2021/03/10 07:24:48;;;;;;;12.85;10.10;;;;;;;3.24;32.13;101503.53;4916022;28;99995;-75
2021/03/10 07:27:17;;;;;;;13.43;10.00;;;;;;;3.26;32.49;101497.50;4929489;28;98850;-74
2021/03/10 07:29:44;;;;;;;14.25;9.75;;;;;;;3.30;32.53;101499.47;4904866;28;96824;-74
2021/03/10 07:32:12;;;;;;;15.38;9.60;;;;;;;3.33;32.14;101499.69;4925980;28;99264;-75
2021/03/10 07:34:39;;;;;;;11.63;9.95;;;;;;;3.30;32.27;101505.66;4913729;28;100652;-74
2021/03/10 07:37:12;;;;;;;14.68;9.75;;;;;;;3.28;31.78;101507.28;4932504;28;98379;-75
2021/03/10 07:39:39;;;;;;;11.23;9.23;;;;;;;3.29;32.16;101510.81;4927940;28;97189;-75
2021/03/10 07:42:10;;;;;;;13.05;9.57;;;;;;;3.32;32.05;101509.28;4919760;28;96769;-75
2021/03/10 07:44:55;;;;;;;16.27;10.95;;;;;;;3.35;31.79;101513.84;4935839;28;97337;-74
2021/03/10 07:47:21;;;;;;;13.30;9.65;;;;;;;3.39;31.81;101510.56;4915983;28;97928;-73
2021/03/10 07:49:57;;;;;;;13.95;10.05;;;;;;;3.42;31.70;101516.94;4906701;28;96796;-73
2021/03/10 07:52:25;;;;;;;13.85;10.35;;;;;;;3.43;31.78;101508.22;4934521;28;97760;-73
2021/03/10 07:54:56;;;;;;;13.35;9.70;;;;;;;3.50;32.00;101510.41;4926394;28;97656;-74
2021/03/10 07:57:23;;;;;;;12.80;9.70;;;;;;;3.58;31.85;101514.44;4926522;28;98151;-74
2021/03/10 07:59:55;;;;;;;14.73;10.38;;;;;;;3.65;32.23;101524.53;4914621;28;96922;-73
2021/03/10 08:02:22;;;;;;;16.67;10.65;;;;;;;3.70;31.93;101525.72;4933959;28;96990;-73
2021/03/10 08:04:54;;;;;;;13.85;10.68;;;;;;;3.77;31.69;101524.38;4934753;28;97902;-73
2021/03/10 08:07:21;;;;;;;14.48;10.77;;;;;;;3.81;31.62;101514.09;4914875;28;98796;-74
2021/03/10 08:09:51;;;;;;;13.85;10.32;;;;;;;3.83;31.96;101517.75;4927159;28;97541;-75
2021/03/10 08:12:20;;;;;;;15.32;10.90;;;;;;;3.89;32.01;101519.84;4930957;28;97675;-75
2021/03/10 08:14:48;;;;;;;13.98;10.10;;;;;;;3.95;31.84;101518.47;4935527;28;99452;-75
2021/03/10 08:17:22;;;;;;;17.85;10.77;;;;;;;4.02;31.44;101525.00;4932295;28;97201;-75
2021/03/10 08:19:53;;;;;;;17.48;10.60;;;;;;;4.09;31.51;101522.84;4921751;28;98004;-76
2021/03/10 08:22:20;;;;;;;15.18;10.93;;;;;;;4.20;31.36;101527.00;4930996;28;97923;-75
2021/03/10 08:24:47;;;;;;;15.82;10.73;;;;;;;4.28;31.63;101526.53;4932432;28;99621;-75
2021/03/10 08:27:14;;;;;;;17.90;12.13;;;;;;;4.36;31.27;101522.59;4923052;28;96766;-73
2021/03/10 08:29:47;;;;;;;15.68;11.32;;;;;;;4.44;31.26;101521.34;4922000;28;98063;-71
2021/03/10 08:32:23;;;;;;;15.05;11.98;;;;;;;4.54;31.01;101531.56;4910418;28;97891;-72
2021/03/10 08:34:51;;;;;;;12.93;10.88;;;;;;;4.63;31.26;101532.09;4932456;28;98263;-73
2021/03/10 08:37:18;;;;;;;18.30;12.23;;;;;;;4.72;31.22;101515.06;4931575;28;97710;-72
2021/03/10 08:39:46;;;;;;;17.70;11.88;;;;;;;4.83;30.95;101513.94;4915933;28;98195;-73
2021/03/10 08:42:16;;;;;;;18.38;12.50;;;;;;;4.93;30.99;101515.38;4925891;28;96910;-72
2021/03/10 08:44:45;;;;;;;15.07;12.18;;;;;;;5.03;30.93;101523.91;4928489;28;97605;-72
2021/03/10 08:47:13;;;;;;;20.50;12.75;;;;;;;5.09;30.80;101507.50;4909394;28;99936;-72
2021/03/10 08:49:42;;;;;;;20.38;12.98;;;;;;;5.11;30.88;101511.13;4905726;28;97263;-72
2021/03/10 08:52:12;;;;;;;17.92;12.52;;;;;;;5.15;30.90;101510.47;4907764;28;96789;-71
2021/03/10 08:54:51;;;;;;;19.02;12.88;;;;;;;5.20;30.83;101514.25;4907138;28;102272;-73
2021/03/10 08:57:19;;;;;;;19.80;12.25;;;;;;;5.24;30.94;101510.97;4894740;28;99637;-73
2021/03/10 08:59:46;;;;;;;22.77;14.52;;;;;;;5.29;30.94;101517.41;4908502;28;96907;-72
2021/03/10 09:02:14;;;;;;;18.77;13.02;;;;;;;5.30;30.95;101516.59;4924366;28;96709;-72
2021/03/10 09:04:49;;;;;;;17.75;13.00;;;;;;;5.33;30.89;101507.91;4896728;28;99920;-73
2021/03/10 09:07:20;;;;;;;20.90;14.32;;;;;;;5.34;30.84;101515.91;4908527;28;100954;-73
2021/03/10 09:09:52;;;;;;;20.88;14.25;;;;;;;5.39;31.17;101514.44;4926122;28;97842;-72
2021/03/10 09:12:19;;;;;;;24.67;16.17;;;;;;;5.47;30.92;101521.03;4923237;28;97118;-72
2021/03/10 09:14:58;;;;;;;25.42;18.40;;;;;;;5.55;30.92;101513.50;4896847;28;99072;-72
2021/03/10 09:17:35;;;;;;;24.45;15.68;;;;;;;5.62;30.92;101508.63;4899282;28;99712;-72
2021/03/10 09:20:09;;;;;;;24.77;16.63;;;;;;;5.69;30.96;101510.78;4915200;28;96944;-72
2021/03/10 09:22:45;;;;;;;24.10;15.73;;;;;;;5.75;30.82;101511.09;4900659;28;97925;-70
2021/03/10 09:25:31;;;;;;;28.13;19.37;;;;;;;5.85;31.01;101515.13;4894782;28;98960;-72
2021/03/10 09:28:06;;;;;;;30.40;20.90;;;;;;;5.93;31.10;101514.69;4923899;28;99661;-73
2021/03/10 09:30:41;;;;;;;25.25;16.00;;;;;;;5.95;31.19;101515.69;4898971;28;96961;-71
2021/03/10 09:33:17;;;;;;;26.70;17.75;;;;;;;6.00;31.16;101513.25;4901403;28;98202;-71
2021/03/10 09:35:51;;;;;;;26.02;16.83;;;;;;;6.06;31.05;101514.50;4906277;28;98538;-71
2021/03/10 09:38:19;;;;;;;26.63;16.35;;;;;;;6.13;31.15;101513.97;4898269;28;100692;-71
2021/03/10 09:40:52;;;;;;;23.38;15.27;;;;;;;6.15;31.20;101516.69;4915942;28;96949;-72
2021/03/10 09:43:21;;;;;;;28.42;16.92;;;;;;;6.16;30.95;101505.25;4926357;28;98516;-72
2021/03/10 09:45:50;;;;;;;28.70;15.88;;;;;;;6.23;31.21;101508.28;4914654;28;101788;-71
2021/03/10 09:48:28;;;;;;;26.05;16.30;;;;;;;6.32;31.43;101512.28;4923165;28;99292;-72
2021/03/10 09:51:04;;;;;;;28.75;16.95;;;;;;;6.37;31.05;101510.75;4901954;28;97497;-71
2021/03/10 09:53:34;;;;;;;22.98;14.82;;;;;;;6.42;31.12;101509.25;4916783;28;99240;-72
2021/03/10 09:56:09;;;;;;;25.08;16.25;;;;;;;6.48;30.86;101509.56;4934686;28;101162;-71
2021/03/10 09:58:48;;;;;;;26.80;16.73;;;;;;;6.58;31.05;101512.72;4907379;28;99506;-71
2021/03/10 10:01:17;;;;;;;26.73;15.63;;;;;;;6.67;31.12;101504.34;4914414;28;98929;-72
2021/03/10 10:03:45;;;;;;;24.42;15.60;;;;;;;6.68;30.93;101507.06;4921028;28;100403;-72
2021/03/10 10:06:16;;;;;;;27.63;17.58;;;;;;;6.71;30.94;101504.53;4901026;28;99689;-72
2021/03/10 10:08:47;;;;;;;26.27;17.10;;;;;;;6.72;30.98;101508.09;4894644;28;98763;-72
2021/03/10 10:11:15;;;;;;;28.10;16.42;;;;;;;6.80;31.00;101504.06;4905052;28;97126;-73
2021/03/10 10:13:45;;;;;;;28.90;17.42;;;;;;;6.87;31.01;101492.97;4926680;28;97382;-72
2021/03/10 10:16:13;;;;;;;28.58;17.52;;;;;;;6.85;31.15;101497.28;4908011;28;97832;-72
2021/03/10 10:18:47;;;;;;;25.98;16.27;;;;;;;6.82;31.36;101505.97;4888281;28;100290;-72
2021/03/10 10:21:17;;;;;;;28.17;17.73;;;;;;;6.74;31.15;101504.72;4908099;28;97805;-72
2021/03/10 10:23:47;;;;;;;25.08;16.00;;;;;;;6.72;31.08;101503.72;4924738;28;97181;-74
2021/03/10 10:26:17;;;;;;;29.10;17.60;;;;;;;6.71;31.37;101504.53;4901173;28;99668;-73
2021/03/10 10:28:47;;;;;;;25.70;16.77;;;;;;;6.72;31.64;101505.47;4928253;28;99178;-73
2021/03/10 10:31:32;;;;;;;27.02;17.55;;;;;;;6.76;31.45;101491.56;4900590;28;97162;-72
2021/03/10 10:34:00;;;;;;;27.05;16.98;;;;;;;6.83;31.51;101494.56;4897646;28;99166;-73
2021/03/10 10:36:28;;;;;;;29.85;16.95;;;;;;;6.88;31.17;101492.13;4899587;28;98991;-73
2021/03/10 10:39:15;;;;;;;29.10;17.83;;;;;;;6.94;31.57;101497.72;4891769;28;105030;-73
2021/03/10 10:41:42;;;;;;;24.25;15.85;;;;;;;7.00;31.31;101497.97;4904432;28;96950;-73
2021/03/10 10:44:10;;;;;;;26.52;16.70;;;;;;;7.10;31.26;101489.66;4900520;28;98033;-73
2021/03/10 10:46:57;;;;;;;23.50;16.77;;;;;;;7.16;31.19;101482.00;4918335;28;99133;-72
2021/03/10 10:49:26;;;;;;;26.27;17.30;;;;;;;7.22;31.21;101474.31;4899350;28;98297;-72
2021/03/10 10:51:53;;;;;;;29.05;17.75;;;;;;;7.28;31.20;101474.59;4929709;28;96957;-73
2021/03/10 10:54:27;;;;;;;26.67;17.52;;;;;;;7.37;30.96;101475.03;4930925;28;97408;-73
2021/03/10 10:56:54;;;;;;;27.83;17.85;;;;;;;7.36;31.22;101470.59;4909149;28;98560;-74
2021/03/10 10:59:27;;;;;;;29.23;16.90;;;;;;;7.42;31.13;101464.69;4918478;28;100339;-74
2021/03/10 11:01:59;;;;;;;30.13;17.88;;;;;;;7.46;31.30;101467.53;4904565;28;97050;-75
2021/03/10 11:04:27;;;;;;;24.40;16.35;;;;;;;7.51;31.10;101463.31;4935708;28;97241;-74
2021/03/10 11:06:55;;;;;;;26.13;16.10;;;;;;;7.60;31.22;101460.19;4909966;28;99229;-74
2021/03/10 11:09:22;;;;;;;27.88;16.90;;;;;;;7.67;30.91;101452.59;4915645;28;99335;-76
2021/03/10 11:11:52;;;;;;;25.90;16.30;;;;;;;7.70;30.90;101455.38;4930736;28;97122;-74
2021/03/10 11:14:22;;;;;;;27.33;16.77;;;;;;;7.70;30.89;101459.75;4921256;28;97246;-75
2021/03/10 11:16:57;;;;;;;26.75;16.75;;;;;;;7.78;31.11;101453.94;4891152;28;97892;-74
2021/03/10 11:19:39;;;;;;;27.73;16.98;;;;;;;7.82;31.27;101439.09;4899395;28;99725;-74
2021/03/10 11:22:07;;;;;;;25.38;16.42;;;;;;;7.88;30.87;101447.28;4921396;28;97412;-74
2021/03/10 11:24:37;;;;;;;26.48;16.17;;;;;;;7.93;30.63;101443.09;4919139;28;98441;-74
2021/03/10 11:27:05;;;;;;;23.45;16.00;;;;;;;7.93;30.77;101444.00;4911779;28;100395;-73
2021/03/10 11:29:35;;;;;;;27.75;17.73;;;;;;;7.92;31.08;101441.28;4904336;28;97603;-74